sensor_id;sensor_type;location;lat;lon;timestamp;pressure;altitude;pressure_sealevel;temperature;humidity
59873;BME280;50750;51.636;4.948;2023-12-04T00:00:18;101369.30;;;8.44;59.15
59873;BME280;50750;51.636;4.948;2023-12-04T00:03:04;101367.02;;;8.44;59.19
59873;BME280;50750;51.636;4.948;2023-12-04T00:05:31;101360.58;;;8.44;59.22
59873;BME280;50750;51.636;4.948;2023-12-04T00:07:58;101355.34;;;8.44;59.11
59873;BME280;50750;51.636;4.948;2023-12-04T00:10:25;101349.23;;;8.43;59.06
59873;BME280;50750;51.636;4.948;2023-12-04T00:12:51;101345.73;;;8.44;59.19
59873;BME280;50750;51.636;4.948;2023-12-04T00:15:19;101344.86;;;8.44;59.11
59873;BME280;50750;51.636;4.948;2023-12-04T00:17:46;101339.80;;;8.44;59.20
59873;BME280;50750;51.636;4.948;2023-12-04T00:20:12;101336.64;;;8.45;59.17
59873;BME280;50750;51.636;4.948;2023-12-04T00:22:41;101335.61;;;8.45;59.23
59873;BME280;50750;51.636;4.948;2023-12-04T00:25:07;101332.64;;;8.44;59.18
59873;BME280;50750;51.636;4.948;2023-12-04T00:27:34;101332.11;;;8.45;59.11
59873;BME280;50750;51.636;4.948;2023-12-04T00:30:00;101326.70;;;8.45;59.10
59873;BME280;50750;51.636;4.948;2023-12-04T00:32:29;101333.33;;;8.45;59.16
59873;BME280;50750;51.636;4.948;2023-12-04T00:34:56;101328.96;;;8.45;59.12
59873;BME280;50750;51.636;4.948;2023-12-04T00:37:22;101324.95;;;8.45;59.10
59873;BME280;50750;51.636;4.948;2023-12-04T00:39:49;101328.97;;;8.45;59.21
59873;BME280;50750;51.636;4.948;2023-12-04T00:42:15;101326.34;;;8.45;59.13
59873;BME280;50750;51.636;4.948;2023-12-04T00:44:42;101318.69;;;8.44;59.03
59873;BME280;50750;51.636;4.948;2023-12-04T00:47:08;101314.66;;;8.45;59.24
59873;BME280;50750;51.636;4.948;2023-12-04T00:49:36;101314.48;;;8.45;59.19
59873;BME280;50750;51.636;4.948;2023-12-04T00:52:03;101315.18;;;8.45;59.24
59873;BME280;50750;51.636;4.948;2023-12-04T00:54:29;101314.14;;;8.44;59.12
59873;BME280;50750;51.636;4.948;2023-12-04T00:56:56;101312.74;;;8.44;59.34
59873;BME280;50750;51.636;4.948;2023-12-04T00:59:22;101305.42;;;8.44;59.25
59873;BME280;50750;51.636;4.948;2023-12-04T01:01:48;101302.62;;;8.44;59.09
59873;BME280;50750;51.636;4.948;2023-12-04T01:04:15;101301.75;;;8.44;59.23
59873;BME280;50750;51.636;4.948;2023-12-04T01:06:44;101296.52;;;8.44;59.19
59873;BME280;50750;51.636;4.948;2023-12-04T01:09:10;101293.20;;;8.45;59.24
59873;BME280;50750;51.636;4.948;2023-12-04T01:11:37;101290.40;;;8.45;59.23
59873;BME280;50750;51.636;4.948;2023-12-04T01:14:03;101285.87;;;8.45;59.27
59873;BME280;50750;51.636;4.948;2023-12-04T01:16:29;101282.01;;;8.45;59.12
59873;BME280;50750;51.636;4.948;2023-12-04T01:18:57;101283.77;;;8.45;59.07
59873;BME280;50750;51.636;4.948;2023-12-04T01:21:23;101280.44;;;8.45;59.27
59873;BME280;50750;51.636;4.948;2023-12-04T01:23:50;101278.18;;;8.45;59.20
59873;BME280;50750;51.636;4.948;2023-12-04T01:26:16;101275.57;;;8.45;59.13
59873;BME280;50750;51.636;4.948;2023-12-04T01:28:43;101270.67;;;8.45;59.13
59873;BME280;50750;51.636;4.948;2023-12-04T01:31:09;101272.23;;;8.45;59.25
59873;BME280;50750;51.636;4.948;2023-12-04T01:33:35;101270.84;;;8.45;59.18
59873;BME280;50750;51.636;4.948;2023-12-04T01:36:04;101268.40;;;8.45;59.21
59873;BME280;50750;51.636;4.948;2023-12-04T01:38:30;101268.92;;;8.45;59.02
59873;BME280;50750;51.636;4.948;2023-12-04T01:40:57;101264.05;;;8.45;59.15
59873;BME280;50750;51.636;4.948;2023-12-04T01:43:23;101257.77;;;8.45;59.14
59873;BME280;50750;51.636;4.948;2023-12-04T01:45:51;101254.10;;;8.45;59.22
59873;BME280;50750;51.636;4.948;2023-12-04T01:48:19;101254.63;;;8.45;59.28
59873;BME280;50750;51.636;4.948;2023-12-04T01:50:45;101254.46;;;8.44;59.05
59873;BME280;50750;51.636;4.948;2023-12-04T01:53:12;101249.39;;;8.45;59.10
59873;BME280;50750;51.636;4.948;2023-12-04T01:55:39;101247.30;;;8.45;59.13
59873;BME280;50750;51.636;4.948;2023-12-04T01:58:07;101246.80;;;8.44;59.19
59873;BME280;50750;51.636;4.948;2023-12-04T02:00:34;101241.36;;;8.45;59.18
59873;BME280;50750;51.636;4.948;2023-12-04T02:03:01;101238.05;;;8.44;59.23
59873;BME280;50750;51.636;4.948;2023-12-04T02:05:28;101238.41;;;8.44;59.30
59873;BME280;50750;51.636;4.948;2023-12-04T02:07:55;101232.48;;;8.44;59.13
59873;BME280;50750;51.636;4.948;2023-12-04T02:10:22;101224.98;;;8.44;59.04
59873;BME280;50750;51.636;4.948;2023-12-04T02:12:50;101224.62;;;8.45;59.05
59873;BME280;50750;51.636;4.948;2023-12-04T02:15:16;101221.82;;;8.45;59.24
59873;BME280;50750;51.636;4.948;2023-12-04T02:17:43;101219.38;;;8.44;59.14
59873;BME280;50750;51.636;4.948;2023-12-04T02:20:13;101214.31;;;8.45;59.01
59873;BME280;50750;51.636;4.948;2023-12-04T02:22:40;101210.13;;;8.45;59.07
59873;BME280;50750;51.636;4.948;2023-12-04T02:25:07;101207.50;;;8.45;59.01
59873;BME280;50750;51.636;4.948;2023-12-04T02:27:40;101206.98;;;8.45;59.09
59873;BME280;50750;51.636;4.948;2023-12-04T02:30:11;101204.02;;;8.44;59.04
59873;BME280;50750;51.636;4.948;2023-12-04T02:32:45;101199.11;;;8.45;59.16
59873;BME280;50750;51.636;4.948;2023-12-04T02:35:14;101201.56;;;8.45;59.15
59873;BME280;50750;51.636;4.948;2023-12-04T02:37:41;101192.66;;;8.45;58.95
59873;BME280;50750;51.636;4.948;2023-12-04T02:40:10;101183.41;;;8.45;58.99
59873;BME280;50750;51.636;4.948;2023-12-04T02:42:37;101183.58;;;8.45;59.00
59873;BME280;50750;51.636;4.948;2023-12-04T02:45:04;101184.11;;;8.45;59.07
59873;BME280;50750;51.636;4.948;2023-12-04T02:47:30;101175.55;;;8.45;59.02
59873;BME280;50750;51.636;4.948;2023-12-04T02:49:57;101173.99;;;8.45;59.04
59873;BME280;50750;51.636;4.948;2023-12-04T02:52:23;101171.91;;;8.45;59.03
59873;BME280;50750;51.636;4.948;2023-12-04T02:54:50;101169.98;;;8.45;59.22
59873;BME280;50750;51.636;4.948;2023-12-04T02:57:16;101164.21;;;8.45;58.96
59873;BME280;50750;51.636;4.948;2023-12-04T02:59:43;101159.17;;;8.45;59.10
59873;BME280;50750;51.636;4.948;2023-12-04T03:02:09;101157.58;;;8.45;59.07
59873;BME280;50750;51.636;4.948;2023-12-04T03:04:35;101148.16;;;8.45;58.99
59873;BME280;50750;51.636;4.948;2023-12-04T03:07:02;101141.36;;;8.45;59.04
59873;BME280;50750;51.636;4.948;2023-12-04T03:09:28;101142.05;;;8.45;59.18
59873;BME280;50750;51.636;4.948;2023-12-04T03:11:55;101133.86;;;8.45;59.19
59873;BME280;50750;51.636;4.948;2023-12-04T03:14:21;101134.02;;;8.45;59.16
59873;BME280;50750;51.636;4.948;2023-12-04T03:16:50;101128.29;;;8.44;59.10
59873;BME280;50750;51.636;4.948;2023-12-04T03:19:17;101128.29;;;8.44;59.17
59873;BME280;50750;51.636;4.948;2023-12-04T03:21:43;101123.93;;;8.44;59.02
59873;BME280;50750;51.636;4.948;2023-12-04T03:24:10;101117.98;;;8.44;59.08
59873;BME280;50750;51.636;4.948;2023-12-04T03:26:37;101114.51;;;8.44;59.05
59873;BME280;50750;51.636;4.948;2023-12-04T03:29:03;101111.02;;;8.44;59.18
59873;BME280;50750;51.636;4.948;2023-12-04T03:31:29;101109.78;;;8.44;58.92
59873;BME280;50750;51.636;4.948;2023-12-04T03:33:57;101108.91;;;8.44;59.10
59873;BME280;50750;51.636;4.948;2023-12-04T03:36:24;101106.65;;;8.44;59.08
59873;BME280;50750;51.636;4.948;2023-12-04T03:38:50;101101.77;;;8.44;58.98
59873;BME280;50750;51.636;4.948;2023-12-04T03:41:17;101098.45;;;8.44;59.14
59873;BME280;50750;51.636;4.948;2023-12-04T03:43:43;101092.16;;;8.44;59.03
59873;BME280;50750;51.636;4.948;2023-12-04T03:46:10;101088.32;;;8.44;59.00
59873;BME280;50750;51.636;4.948;2023-12-04T03:48:36;101085.34;;;8.44;59.07
59873;BME280;50750;51.636;4.948;2023-12-04T03:51:04;101085.71;;;8.44;59.05
59873;BME280;50750;51.636;4.948;2023-12-04T03:53:30;101084.66;;;8.44;58.99
59873;BME280;50750;51.636;4.948;2023-12-04T03:55:59;101082.40;;;8.44;59.09
59873;BME280;50750;51.636;4.948;2023-12-04T03:58:26;101074.54;;;8.44;59.03
59873;BME280;50750;51.636;4.948;2023-12-04T04:00:52;101073.48;;;8.44;59.05
59873;BME280;50750;51.636;4.948;2023-12-04T04:03:18;101070.34;;;8.45;59.21
59873;BME280;50750;51.636;4.948;2023-12-04T04:05:45;101064.06;;;8.44;59.14
59873;BME280;50750;51.636;4.948;2023-12-04T04:08:11;101063.02;;;8.44;59.00
59873;BME280;50750;51.636;4.948;2023-12-04T04:10:38;101064.06;;;8.44;59.15
59873;BME280;50750;51.636;4.948;2023-12-04T04:13:04;101063.20;;;8.44;59.09
59873;BME280;50750;51.636;4.948;2023-12-04T04:15:31;101056.56;;;8.44;59.25
59873;BME280;50750;51.636;4.948;2023-12-04T04:17:58;101052.73;;;8.44;59.17
59873;BME280;50750;51.636;4.948;2023-12-04T04:20:24;101051.68;;;8.44;59.11
59873;BME280;50750;51.636;4.948;2023-12-04T04:22:51;101043.83;;;8.43;58.90
59873;BME280;50750;51.636;4.948;2023-12-04T04:25:18;101043.13;;;8.44;59.21
59873;BME280;50750;51.636;4.948;2023-12-04T04:27:44;101040.70;;;8.44;59.09
59873;BME280;50750;51.636;4.948;2023-12-04T04:30:12;101035.80;;;8.44;58.98
59873;BME280;50750;51.636;4.948;2023-12-04T04:32:39;101030.58;;;8.44;59.03
59873;BME280;50750;51.636;4.948;2023-12-04T04:35:06;101028.13;;;8.43;58.93
59873;BME280;50750;51.636;4.948;2023-12-04T04:37:33;101023.59;;;8.44;59.10
59873;BME280;50750;51.636;4.948;2023-12-04T04:39:59;101020.27;;;8.44;58.98
59873;BME280;50750;51.636;4.948;2023-12-04T04:42:26;101026.73;;;8.44;58.97
59873;BME280;50750;51.636;4.948;2023-12-04T04:44:52;101029.00;;;8.44;59.11
59873;BME280;50750;51.636;4.948;2023-12-04T04:47:18;101027.26;;;8.44;59.07
59873;BME280;50750;51.636;4.948;2023-12-04T04:49:45;101027.95;;;8.44;59.12
59873;BME280;50750;51.636;4.948;2023-12-04T04:52:11;101023.42;;;8.44;59.01
59873;BME280;50750;51.636;4.948;2023-12-04T04:54:38;101019.40;;;8.44;58.80
59873;BME280;50750;51.636;4.948;2023-12-04T04:57:04;101016.44;;;8.43;58.85
59873;BME280;50750;51.636;4.948;2023-12-04T04:59:31;101018.18;;;8.44;58.96
59873;BME280;50750;51.636;4.948;2023-12-04T05:01:58;101014.16;;;8.43;58.77
59873;BME280;50750;51.636;4.948;2023-12-04T05:04:24;101009.81;;;8.44;58.86
59873;BME280;50750;51.636;4.948;2023-12-04T05:06:51;101009.11;;;8.43;58.84
59873;BME280;50750;51.636;4.948;2023-12-04T05:09:17;101001.77;;;8.44;58.94
59873;BME280;50750;51.636;4.948;2023-12-04T05:11:43;100995.32;;;8.44;58.99
59873;BME280;50750;51.636;4.948;2023-12-04T05:14:10;100983.27;;;8.43;58.82
59873;BME280;50750;51.636;4.948;2023-12-04T05:16:36;100979.45;;;8.43;58.69
59873;BME280;50750;51.636;4.948;2023-12-04T05:19:03;100976.30;;;8.43;58.85
59873;BME280;50750;51.636;4.948;2023-12-04T05:21:29;100975.61;;;8.43;58.95
59873;BME280;50750;51.636;4.948;2023-12-04T05:23:55;100967.05;;;8.43;58.66
59873;BME280;50750;51.636;4.948;2023-12-04T05:26:22;100963.58;;;8.43;58.69
59873;BME280;50750;51.636;4.948;2023-12-04T05:28:48;100959.72;;;8.43;58.87
59873;BME280;50750;51.636;4.948;2023-12-04T05:31:14;100959.89;;;8.43;58.74
59873;BME280;50750;51.636;4.948;2023-12-04T05:33:41;100958.86;;;8.43;58.71
59873;BME280;50750;51.636;4.948;2023-12-04T05:36:08;100952.05;;;8.43;58.73
59873;BME280;50750;51.636;4.948;2023-12-04T05:38:34;100956.42;;;8.43;58.63
59873;BME280;50750;51.636;4.948;2023-12-04T05:41:01;100958.86;;;8.42;58.55
59873;BME280;50750;51.636;4.948;2023-12-04T05:43:27;100956.77;;;8.42;58.56
59873;BME280;50750;51.636;4.948;2023-12-04T05:45:54;100953.98;;;8.43;58.74
59873;BME280;50750;51.636;4.948;2023-12-04T05:48:20;100951.37;;;8.42;58.67
59873;BME280;50750;51.636;4.948;2023-12-04T05:50:46;100951.02;;;8.42;58.55
59873;BME280;50750;51.636;4.948;2023-12-04T05:53:13;100949.29;;;8.42;58.52
59873;BME280;50750;51.636;4.948;2023-12-04T05:55:39;100947.19;;;8.42;58.47
59873;BME280;50750;51.636;4.948;2023-12-04T05:58:06;100945.09;;;8.42;58.59
59873;BME280;50750;51.636;4.948;2023-12-04T06:00:33;100944.23;;;8.42;58.53
59873;BME280;50750;51.636;4.948;2023-12-04T06:02:59;100936.55;;;8.42;58.62
59873;BME280;50750;51.636;4.948;2023-12-04T06:05:26;100936.73;;;8.41;58.53
59873;BME280;50750;51.636;4.948;2023-12-04T06:07:52;100936.20;;;8.42;58.38
59873;BME280;50750;51.636;4.948;2023-12-04T06:10:19;100930.98;;;8.41;58.67
59873;BME280;50750;51.636;4.948;2023-12-04T06:12:45;100927.13;;;8.40;58.44
59873;BME280;50750;51.636;4.948;2023-12-04T06:15:12;100929.77;;;8.40;58.32
59873;BME280;50750;51.636;4.948;2023-12-04T06:17:38;100926.63;;;8.40;58.53
59873;BME280;50750;51.636;4.948;2023-12-04T06:20:06;100923.30;;;8.40;58.40
59873;BME280;50750;51.636;4.948;2023-12-04T06:22:33;100922.44;;;8.40;58.67
59873;BME280;50750;51.636;4.948;2023-12-04T06:25:00;100919.99;;;8.40;58.57
59873;BME280;50750;51.636;4.948;2023-12-04T06:27:26;100919.80;;;8.40;58.62
59873;BME280;50750;51.636;4.948;2023-12-04T06:29:53;100914.59;;;8.40;58.49
59873;BME280;50750;51.636;4.948;2023-12-04T06:32:20;100909.70;;;8.40;58.56
59873;BME280;50750;51.636;4.948;2023-12-04T06:34:47;100911.11;;;8.40;58.61
59873;BME280;50750;51.636;4.948;2023-12-04T06:37:15;100910.56;;;8.40;58.66
59873;BME280;50750;51.636;4.948;2023-12-04T06:39:42;100917.89;;;8.40;58.74
59873;BME280;50750;51.636;4.948;2023-12-04T06:42:11;100910.40;;;8.40;58.57
59873;BME280;50750;51.636;4.948;2023-12-04T06:44:38;100901.84;;;8.40;58.60
59873;BME280;50750;51.636;4.948;2023-12-04T06:47:08;100896.44;;;8.40;58.59
59873;BME280;50750;51.636;4.948;2023-12-04T06:49:34;100897.48;;;8.41;58.50
59873;BME280;50750;51.636;4.948;2023-12-04T06:52:01;100894.69;;;8.41;58.64
59873;BME280;50750;51.636;4.948;2023-12-04T06:54:27;100888.91;;;8.40;58.59
59873;BME280;50750;51.636;4.948;2023-12-04T06:56:54;100889.10;;;8.42;58.47
59873;BME280;50750;51.636;4.948;2023-12-04T06:59:20;100880.89;;;8.40;58.69
59873;BME280;50750;51.636;4.948;2023-12-04T07:01:47;100879.15;;;8.41;58.46
59873;BME280;50750;51.636;4.948;2023-12-04T07:04:16;100878.11;;;8.40;58.48
59873;BME280;50750;51.636;4.948;2023-12-04T07:06:47;100873.05;;;8.41;58.56
59873;BME280;50750;51.636;4.948;2023-12-04T07:09:14;100866.23;;;8.41;58.56
59873;BME280;50750;51.636;4.948;2023-12-04T07:11:43;100872.17;;;8.41;58.46
59873;BME280;50750;51.636;4.948;2023-12-04T07:14:10;100874.97;;;8.41;58.25
59873;BME280;50750;51.636;4.948;2023-12-04T07:16:43;100869.91;;;8.41;58.33
59873;BME280;50750;51.636;4.948;2023-12-04T07:19:10;100865.54;;;8.41;58.35
59873;BME280;50750;51.636;4.948;2023-12-04T07:21:37;100864.33;;;8.41;58.48
59873;BME280;50750;51.636;4.948;2023-12-04T07:24:05;100861.36;;;8.41;58.43
59873;BME280;50750;51.636;4.948;2023-12-04T07:26:32;100854.38;;;8.41;58.27
59873;BME280;50750;51.636;4.948;2023-12-04T07:28:59;100853.86;;;8.41;58.37
59873;BME280;50750;51.636;4.948;2023-12-04T07:31:26;100856.13;;;8.40;58.40
59873;BME280;50750;51.636;4.948;2023-12-04T07:33:53;100858.04;;;8.42;58.19
59873;BME280;50750;51.636;4.948;2023-12-04T07:36:20;100856.30;;;8.41;58.46
59873;BME280;50750;51.636;4.948;2023-12-04T07:38:46;100857.52;;;8.41;58.38
59873;BME280;50750;51.636;4.948;2023-12-04T07:41:13;100852.27;;;8.41;58.42
59873;BME280;50750;51.636;4.948;2023-12-04T07:43:40;100854.04;;;8.40;58.35
59873;BME280;50750;51.636;4.948;2023-12-04T07:46:06;100858.58;;;8.40;58.48
59873;BME280;50750;51.636;4.948;2023-12-04T07:48:32;100863.98;;;8.40;58.32
59873;BME280;50750;51.636;4.948;2023-12-04T07:50:59;100860.66;;;8.41;58.34
59873;BME280;50750;51.636;4.948;2023-12-04T07:53:25;100858.75;;;8.40;58.37
59873;BME280;50750;51.636;4.948;2023-12-04T07:55:52;100861.90;;;8.40;58.42
59873;BME280;50750;51.636;4.948;2023-12-04T07:58:18;100862.59;;;8.40;58.43
59873;BME280;50750;51.636;4.948;2023-12-04T08:00:45;100863.29;;;8.40;58.49
59873;BME280;50750;51.636;4.948;2023-12-04T08:03:11;100858.73;;;8.40;58.34
59873;BME280;50750;51.636;4.948;2023-12-04T08:05:38;100855.95;;;8.41;58.24
59873;BME280;50750;51.636;4.948;2023-12-04T08:08:04;100846.18;;;8.40;58.18
59873;BME280;50750;51.636;4.948;2023-12-04T08:10:31;100847.39;;;8.41;58.20
59873;BME280;50750;51.636;4.948;2023-12-04T08:12:57;100841.13;;;8.40;58.25
59873;BME280;50750;51.636;4.948;2023-12-04T08:15:25;100839.02;;;8.41;58.06
59873;BME280;50750;51.636;4.948;2023-12-04T08:17:51;100838.15;;;8.41;58.15
59873;BME280;50750;51.636;4.948;2023-12-04T08:20:18;100834.48;;;8.40;58.01
59873;BME280;50750;51.636;4.948;2023-12-04T08:22:48;100831.88;;;8.41;58.20
59873;BME280;50750;51.636;4.948;2023-12-04T08:25:15;100827.35;;;8.39;58.17
59873;BME280;50750;51.636;4.948;2023-12-04T08:27:41;100828.38;;;8.40;58.23
59873;BME280;50750;51.636;4.948;2023-12-04T08:30:09;100826.83;;;8.40;58.19
59873;BME280;50750;51.636;4.948;2023-12-04T08:32:35;100823.50;;;8.40;58.14
59873;BME280;50750;51.636;4.948;2023-12-04T08:35:02;100817.05;;;8.40;58.03
59873;BME280;50750;51.636;4.948;2023-12-04T08:37:30;100817.06;;;8.39;58.11
59873;BME280;50750;51.636;4.948;2023-12-04T08:39:56;100818.96;;;8.40;58.23
59873;BME280;50750;51.636;4.948;2023-12-04T08:42:23;100816.71;;;8.39;58.17
59873;BME280;50750;51.636;4.948;2023-12-04T08:44:50;100817.25;;;8.39;58.07
59873;BME280;50750;51.636;4.948;2023-12-04T08:47:16;100815.15;;;8.39;58.18
59873;BME280;50750;51.636;4.948;2023-12-04T08:49:43;100810.25;;;8.40;58.10
59873;BME280;50750;51.636;4.948;2023-12-04T08:52:10;100805.73;;;8.39;58.23
59873;BME280;50750;51.636;4.948;2023-12-04T08:54:39;100802.76;;;8.39;58.29
59873;BME280;50750;51.636;4.948;2023-12-04T08:57:08;100796.83;;;8.39;58.20
59873;BME280;50750;51.636;4.948;2023-12-04T08:59:34;100796.29;;;8.39;58.28
59873;BME280;50750;51.636;4.948;2023-12-04T09:02:01;100795.78;;;8.39;58.29
59873;BME280;50750;51.636;4.948;2023-12-04T09:04:31;100797.52;;;8.39;58.29
59873;BME280;50750;51.636;4.948;2023-12-04T09:06:58;100798.91;;;8.39;58.16
59873;BME280;50750;51.636;4.948;2023-12-04T09:09:25;100806.07;;;8.39;58.30
59873;BME280;50750;51.636;4.948;2023-12-04T09:11:51;100806.60;;;8.39;58.23
59873;BME280;50750;51.636;4.948;2023-12-04T09:14:18;100806.95;;;8.39;58.04
59873;BME280;50750;51.636;4.948;2023-12-04T09:16:44;100803.28;;;8.39;58.38
59873;BME280;50750;51.636;4.948;2023-12-04T09:19:11;100804.67;;;8.39;58.30
59873;BME280;50750;51.636;4.948;2023-12-04T09:21:37;100801.88;;;8.39;58.18
59873;BME280;50750;51.636;4.948;2023-12-04T09:24:04;100798.58;;;8.39;58.42
59873;BME280;50750;51.636;4.948;2023-12-04T09:26:31;100793.16;;;8.39;58.28
59873;BME280;50750;51.636;4.948;2023-12-04T09:28:57;100789.67;;;8.39;58.32
59873;BME280;50750;51.636;4.948;2023-12-04T09:31:24;100786.70;;;8.39;58.33
59873;BME280;50750;51.636;4.948;2023-12-04T09:33:50;100789.48;;;8.40;58.17
59873;BME280;50750;51.636;4.948;2023-12-04T09:36:17;100788.61;;;8.40;58.24
59873;BME280;50750;51.636;4.948;2023-12-04T09:38:44;100788.25;;;8.40;58.32
59873;BME280;50750;51.636;4.948;2023-12-04T09:41:12;100784.08;;;8.39;58.26
59873;BME280;50750;51.636;4.948;2023-12-04T09:43:38;100785.98;;;8.40;58.28
59873;BME280;50750;51.636;4.948;2023-12-04T09:46:05;100784.24;;;8.40;58.39
59873;BME280;50750;51.636;4.948;2023-12-04T09:48:33;100781.98;;;8.40;58.18
59873;BME280;50750;51.636;4.948;2023-12-04T09:51:01;100777.11;;;8.39;58.41
59873;BME280;50750;51.636;4.948;2023-12-04T09:53:30;100777.96;;;8.40;58.10
59873;BME280;50750;51.636;4.948;2023-12-04T09:55:59;100766.81;;;8.39;58.22
59873;BME280;50750;51.636;4.948;2023-12-04T09:58:27;100769.23;;;8.41;58.15
59873;BME280;50750;51.636;4.948;2023-12-04T10:00:56;100763.13;;;8.40;58.24
59873;BME280;50750;51.636;4.948;2023-12-04T10:03:24;100763.30;;;8.40;58.40
59873;BME280;50750;51.636;4.948;2023-12-04T10:05:54;100753.88;;;8.40;58.18
59873;BME280;50750;51.636;4.948;2023-12-04T10:08:20;100753.35;;;8.40;58.05
59873;BME280;50750;51.636;4.948;2023-12-04T10:10:48;100752.48;;;8.40;58.10
59873;BME280;50750;51.636;4.948;2023-12-04T10:13:15;100750.21;;;8.40;58.02
59873;BME280;50750;51.636;4.948;2023-12-04T10:15:48;100748.80;;;8.41;58.00
59873;BME280;50750;51.636;4.948;2023-12-04T10:18:27;100746.55;;;8.41;57.76
59873;BME280;50750;51.636;4.948;2023-12-04T10:20:56;100736.44;;;8.40;58.06
59873;BME280;50750;51.636;4.948;2023-12-04T10:23:37;100732.77;;;8.40;58.09
59873;BME280;50750;51.636;4.948;2023-12-04T10:26:05;100729.11;;;8.40;57.83
59873;BME280;50750;51.636;4.948;2023-12-04T10:28:34;100721.44;;;8.40;58.00
59873;BME280;50750;51.636;4.948;2023-12-04T10:31:01;100720.21;;;8.40;58.04
59873;BME280;50750;51.636;4.948;2023-12-04T10:33:29;100709.39;;;8.40;58.08
59873;BME280;50750;51.636;4.948;2023-12-04T10:35:57;100707.65;;;8.40;58.22
59873;BME280;50750;51.636;4.948;2023-12-04T10:38:23;100700.66;;;8.40;58.18
59873;BME280;50750;51.636;4.948;2023-12-04T10:40:50;100695.95;;;8.41;58.14
59873;BME280;50750;51.636;4.948;2023-12-04T10:43:18;100690.70;;;8.40;58.21
59873;BME280;50750;51.636;4.948;2023-12-04T10:45:47;100683.39;;;8.41;58.00
59873;BME280;50750;51.636;4.948;2023-12-04T10:48:16;100679.19;;;8.40;58.09
59873;BME280;50750;51.636;4.948;2023-12-04T10:50:44;100678.50;;;8.41;58.15
59873;BME280;50750;51.636;4.948;2023-12-04T10:53:13;100678.32;;;8.41;58.13
59873;BME280;50750;51.636;4.948;2023-12-04T10:55:41;100671.52;;;8.40;57.97
59873;BME280;50750;51.636;4.948;2023-12-04T10:58:11;100672.03;;;8.41;57.85
59873;BME280;50750;51.636;4.948;2023-12-04T11:00:43;100666.61;;;8.42;57.97
59873;BME280;50750;51.636;4.948;2023-12-04T11:03:20;100666.96;;;8.42;57.83
59873;BME280;50750;51.636;4.948;2023-12-04T11:05:56;100661.89;;;8.43;57.88
59873;BME280;50750;51.636;4.948;2023-12-04T11:08:23;100661.56;;;8.41;57.94
59873;BME280;50750;51.636;4.948;2023-12-04T11:11:03;100663.46;;;8.42;57.92
59873;BME280;50750;51.636;4.948;2023-12-04T11:13:32;100654.21;;;8.42;57.89
59873;BME280;50750;51.636;4.948;2023-12-04T11:16:02;100655.42;;;8.43;58.01
59873;BME280;50750;51.636;4.948;2023-12-04T11:18:31;100654.73;;;8.42;58.01
59873;BME280;50750;51.636;4.948;2023-12-04T11:21:06;100648.63;;;8.42;58.07
59873;BME280;50750;51.636;4.948;2023-12-04T11:23:34;100647.03;;;8.43;57.94
59873;BME280;50750;51.636;4.948;2023-12-04T11:26:02;100639.89;;;8.43;57.95
59873;BME280;50750;51.636;4.948;2023-12-04T11:28:30;100634.31;;;8.43;58.04
59873;BME280;50750;51.636;4.948;2023-12-04T11:30:59;100626.98;;;8.43;58.13
59873;BME280;50750;51.636;4.948;2023-12-04T11:33:27;100627.49;;;8.43;58.12
59873;BME280;50750;51.636;4.948;2023-12-04T11:36:06;100625.41;;;8.43;58.11
59873;BME280;50750;51.636;4.948;2023-12-04T11:38:32;100622.96;;;8.43;58.05
59873;BME280;50750;51.636;4.948;2023-12-04T11:40:59;100614.79;;;8.42;57.96
59873;BME280;50750;51.636;4.948;2023-12-04T11:43:27;100612.52;;;8.42;58.07
59873;BME280;50750;51.636;4.948;2023-12-04T11:46:08;100603.95;;;8.42;58.13
59873;BME280;50750;51.636;4.948;2023-12-04T11:48:38;100598.02;;;8.42;58.14
59873;BME280;50750;51.636;4.948;2023-12-04T11:51:06;100588.26;;;8.42;58.25
59873;BME280;50750;51.636;4.948;2023-12-04T11:53:38;100585.61;;;8.43;58.30
59873;BME280;50750;51.636;4.948;2023-12-04T11:56:13;100581.80;;;8.42;58.26
59873;BME280;50750;51.636;4.948;2023-12-04T11:58:43;100578.81;;;8.43;58.17
59873;BME280;50750;51.636;4.948;2023-12-04T12:01:10;100576.73;;;8.43;58.30
59873;BME280;50750;51.636;4.948;2023-12-04T12:03:37;100572.55;;;8.43;58.41
59873;BME280;50750;51.636;4.948;2023-12-04T12:06:04;100566.95;;;8.43;58.24
59873;BME280;50750;51.636;4.948;2023-12-04T12:08:30;100565.55;;;8.43;58.44
59873;BME280;50750;51.636;4.948;2023-12-04T12:10:59;100564.15;;;8.43;58.38
59873;BME280;50750;51.636;4.948;2023-12-04T12:13:26;100557.88;;;8.43;58.43
59873;BME280;50750;51.636;4.948;2023-12-04T12:15:52;100553.33;;;8.43;58.35
59873;BME280;50750;51.636;4.948;2023-12-04T12:18:21;100548.28;;;8.43;58.26
59873;BME280;50750;51.636;4.948;2023-12-04T12:20:49;100539.55;;;8.43;58.51
59873;BME280;50750;51.636;4.948;2023-12-04T12:23:16;100535.54;;;8.43;58.56
59873;BME280;50750;51.636;4.948;2023-12-04T12:25:42;100531.00;;;8.43;58.52
59873;BME280;50750;51.636;4.948;2023-12-04T12:28:09;100526.45;;;8.44;58.45
59873;BME280;50750;51.636;4.948;2023-12-04T12:30:36;100525.23;;;8.44;58.48
59873;BME280;50750;51.636;4.948;2023-12-04T12:33:03;100521.04;;;8.44;58.46
59873;BME280;50750;51.636;4.948;2023-12-04T12:35:30;100522.43;;;8.44;58.63
59873;BME280;50750;51.636;4.948;2023-12-04T12:37:56;100516.85;;;8.44;58.63
59873;BME280;50750;51.636;4.948;2023-12-04T12:40:23;100510.73;;;8.44;58.39
59873;BME280;50750;51.636;4.948;2023-12-04T12:42:50;100509.54;;;8.44;58.56
59873;BME280;50750;51.636;4.948;2023-12-04T12:45:17;100514.23;;;8.44;58.70
59873;BME280;50750;51.636;4.948;2023-12-04T12:47:44;100511.63;;;8.44;58.66
59873;BME280;50750;51.636;4.948;2023-12-04T12:50:11;100510.39;;;8.44;58.51
59873;BME280;50750;51.636;4.948;2023-12-04T12:52:39;100505.85;;;8.45;58.60
59873;BME280;50750;51.636;4.948;2023-12-04T12:55:07;100500.27;;;8.44;58.67
59873;BME280;50750;51.636;4.948;2023-12-04T12:57:33;100501.48;;;8.44;58.69
59873;BME280;50750;51.636;4.948;2023-12-04T13:00:00;100496.77;;;8.44;58.74